Time;durP1;ratioP1;P1;durP2;ratioP2;P2;SDS_P1;SDS_P2;PMS_P1;PMS_P2;Temp;Humidity;BMP_temperature;BMP_pressure;BME280_temperature;BME280_humidity;BME280_pressure;Samples;Min_cycle;Max_cycle;Signal;HPM_P1;HPM_P2
2022/04/03 00:00:37;;;;;;;0.20;0.20;;;;;;;-2.75;100.00;101428.72;5050543;28;20040;-78
2022/04/03 00:03:10;;;;;;;0.20;0.20;;;;;;;-2.72;100.00;101431.06;5053648;28;20421;-78
2022/04/03 00:05:44;;;;;;;0.30;0.30;;;;;;;-2.70;100.00;101433.56;5042964;28;20053;-79
2022/04/03 00:08:17;;;;;;;0.30;0.30;;;;;;;-2.67;100.00;101428.69;5050931;28;20045;-78
2022/04/03 00:10:46;;;;;;;0.30;0.30;;;;;;;-2.71;100.00;101424.72;5049551;28;20045;-78
2022/04/03 00:13:14;;;;;;;0.30;0.30;;;;;;;-2.75;100.00;101421.59;5049544;28;20044;-77
2022/04/03 00:15:48;;;;;;;0.30;0.30;;;;;;;-2.79;100.00;101416.75;5046758;28;20477;-79
2022/04/03 00:18:22;;;;;;;0.30;0.30;;;;;;;-2.79;100.00;101420.28;5050488;28;20056;-77
2022/04/03 00:20:52;;;;;;;0.30;0.30;;;;;;;-2.84;100.00;101419.94;5049353;28;20064;-78
2022/04/03 00:23:23;;;;;;;0.30;0.30;;;;;;;-2.85;100.00;101422.78;5058006;28;20056;-78
2022/04/03 00:25:56;;;;;;;0.20;0.20;;;;;;;-2.88;100.00;101423.16;5048531;28;20052;-78
2022/04/03 00:28:26;;;;;;;0.30;0.30;;;;;;;-2.87;100.00;101420.31;5050473;28;20044;-78
2022/04/03 00:30:59;;;;;;;0.65;0.30;;;;;;;-2.92;100.00;101422.66;5042921;28;20048;-78
2022/04/03 00:33:32;;;;;;;0.30;0.30;;;;;;;-2.95;100.00;101421.16;5051671;28;20671;-78
2022/04/03 00:36:07;;;;;;;0.32;0.32;;;;;;;-2.97;100.00;101425.84;5047972;28;20806;-77
2022/04/03 00:38:35;;;;;;;0.30;0.30;;;;;;;-3.01;100.00;101416.53;5048977;28;20064;-77
2022/04/03 00:41:09;;;;;;;0.30;0.30;;;;;;;-2.96;100.00;101416.00;5080806;28;20049;-78
2022/04/03 00:43:37;;;;;;;0.30;0.30;;;;;;;-2.92;100.00;101414.66;5044217;28;20485;-77
2022/04/03 00:46:06;;;;;;;0.40;0.40;;;;;;;-2.93;100.00;101411.19;5048676;28;20061;-78
2022/04/03 00:48:41;;;;;;;0.30;0.30;;;;;;;-2.86;100.00;101419.28;5045701;28;20057;-78
2022/04/03 00:51:17;;;;;;;0.25;0.25;;;;;;;-2.78;100.00;101405.09;5050062;28;20052;-78
2022/04/03 00:53:50;;;;;;;0.20;0.20;;;;;;;-2.70;100.00;101405.06;5053001;28;20053;-78
2022/04/03 00:56:24;;;;;;;0.30;0.30;;;;;;;-2.54;100.00;101398.00;5046537;28;20565;-77
2022/04/03 00:58:52;;;;;;;0.30;0.30;;;;;;;-2.58;100.00;101387.69;5043803;28;20041;-78
2022/04/03 01:01:25;;;;;;;0.40;0.40;;;;;;;-2.39;100.00;101401.56;5045442;28;20040;-77
2022/04/03 01:03:54;;;;;;;0.40;0.40;;;;;;;-2.34;100.00;101401.03;5050127;28;20397;-78
2022/04/03 01:06:28;;;;;;;0.32;0.32;;;;;;;-2.27;100.00;101394.00;5052265;28;20049;-78
2022/04/03 01:08:56;;;;;;;0.25;0.25;;;;;;;-2.27;100.00;101394.00;5047282;28;20049;-79
2022/04/03 01:11:30;;;;;;;0.30;0.30;;;;;;;-2.22;100.00;101387.13;5078419;28;20045;-79
2022/04/03 01:14:05;;;;;;;0.30;0.30;;;;;;;-2.15;100.00;101384.56;5051673;28;20470;-78
2022/04/03 01:16:39;;;;;;;0.30;0.30;;;;;;;-1.99;100.00;101388.13;5088026;28;20048;-78
2022/04/03 01:19:12;;;;;;;0.30;0.30;;;;;;;-2.00;100.00;101379.31;5049950;28;20049;-79
2022/04/03 01:21:47;;;;;;;0.30;0.30;;;;;;;-1.94;100.00;101377.75;5049669;28;20045;-78
2022/04/03 01:24:22;;;;;;;0.30;0.30;;;;;;;-1.99;100.00;101370.28;5049564;28;20075;-77
2022/04/03 01:26:56;;;;;;;0.30;0.30;;;;;;;-1.85;100.00;101374.00;5048000;28;20657;-78
2022/04/03 01:29:24;;;;;;;0.30;0.30;;;;;;;-1.89;100.00;101364.72;5046663;28;20060;-77
2022/04/03 01:31:54;;;;;;;0.30;0.30;;;;;;;-1.89;100.00;101362.03;5047876;28;20048;-78
2022/04/03 01:34:27;;;;;;;0.22;0.22;;;;;;;-1.86;100.00;101375.00;5048375;28;20048;-77
2022/04/03 01:36:55;;;;;;;0.30;0.30;;;;;;;-1.86;100.00;101360.81;5055742;28;20519;-77
2022/04/03 01:39:28;;;;;;;0.40;0.40;;;;;;;-1.83;100.00;101363.97;5053917;28;20057;-78
2022/04/03 01:42:03;;;;;;;0.40;0.40;;;;;;;-1.78;100.00;101358.94;5043933;28;20097;-78
2022/04/03 01:44:31;;;;;;;0.40;0.40;;;;;;;-1.74;100.00;101370.91;5052603;28;20051;-78
2022/04/03 01:47:04;;;;;;;0.30;0.30;;;;;;;-1.78;100.00;101350.06;5043706;28;20053;-78
2022/04/03 01:49:37;;;;;;;0.30;0.30;;;;;;;-1.75;100.00;101361.22;5051748;28;20045;-77
2022/04/03 01:52:11;;;;;;;0.30;0.30;;;;;;;-1.66;100.00;101367.31;5059346;28;20052;-78
2022/04/03 01:54:44;;;;;;;0.40;0.40;;;;;;;-1.64;100.00;101359.09;5049889;28;20045;-77
2022/04/03 01:57:18;;;;;;;0.40;0.40;;;;;;;-1.68;100.00;101353.31;5053199;28;20044;-78
2022/04/03 01:59:51;;;;;;;0.40;0.40;;;;;;;-1.65;100.00;101360.97;5052875;28;20052;-79
2022/04/03 02:02:24;;;;;;;0.30;0.30;;;;;;;-1.49;100.00;101357.31;5051317;28;20458;-78
2022/04/03 02:04:57;;;;;;;0.30;0.30;;;;;;;-1.39;100.00;101333.00;5054462;28;20049;-78
2022/04/03 02:07:32;;;;;;;0.30;0.30;;;;;;;-1.46;100.00;101345.44;5053974;28;20045;-78
2022/04/03 02:10:09;;;;;;;0.22;0.22;;;;;;;-1.39;100.00;101341.00;5048937;28;20064;-78
2022/04/03 02:12:43;;;;;;;0.28;0.28;;;;;;;-1.47;100.00;101351.78;5051280;28;20068;-79
2022/04/03 02:15:17;;;;;;;0.30;0.30;;;;;;;-1.46;100.00;101353.44;5049759;28;20053;-77
2022/04/03 02:17:45;;;;;;;0.30;0.30;;;;;;;-1.62;100.00;101335.75;5053016;28;20045;-77
2022/04/03 02:20:18;;;;;;;0.30;0.30;;;;;;;-1.62;100.00;101333.91;5050645;28;20489;-78
2022/04/03 02:22:51;;;;;;;0.30;0.30;;;;;;;-1.79;100.00;101327.09;5048633;28;20041;-79
2022/04/03 02:25:19;;;;;;;0.30;0.30;;;;;;;-1.76;100.00;101340.06;5052571;28;20037;-79
2022/04/03 02:27:54;;;;;;;0.25;0.25;;;;;;;-1.83;100.00;101339.97;5050882;28;20052;-79
2022/04/03 02:30:27;;;;;;;0.30;0.30;;;;;;;-1.85;100.00;101338.47;5051316;28;20056;-78
2022/04/03 02:32:55;;;;;;;0.30;0.30;;;;;;;-1.89;100.00;101319.34;5051648;28;20404;-80
2022/04/03 02:35:29;;;;;;;0.30;0.30;;;;;;;-1.88;100.00;101337.84;5067490;28;20063;-78
2022/04/03 02:38:02;;;;;;;0.30;0.30;;;;;;;-1.95;100.00;101339.56;5051576;28;20056;-78
2022/04/03 02:40:35;;;;;;;0.30;0.30;;;;;;;-1.99;100.00;101338.28;5040036;28;20540;-77
2022/04/03 02:43:06;;;;;;;0.20;0.20;;;;;;;-2.10;100.00;101336.03;5056435;28;20776;-79
2022/04/03 02:45:39;;;;;;;0.30;0.30;;;;;;;-2.11;100.00;101331.72;5050914;28;20053;-78
2022/04/03 02:48:08;;;;;;;0.30;0.30;;;;;;;-2.21;100.00;101334.59;5052079;28;20481;-80
2022/04/03 02:50:37;;;;;;;0.30;0.30;;;;;;;-2.23;100.00;101337.47;5056001;28;20052;-79
2022/04/03 02:53:06;;;;;;;0.40;0.40;;;;;;;-2.29;100.00;101337.34;5052212;28;20045;-78
2022/04/03 02:55:34;;;;;;;0.30;0.30;;;;;;;-2.41;100.00;101334.28;5049364;28;20138;-77
2022/04/03 02:58:08;;;;;;;0.20;0.20;;;;;;;-2.50;100.00;101330.00;5048847;28;20053;-78
2022/04/03 03:00:42;;;;;;;0.28;0.28;;;;;;;-2.51;100.00;101339.00;5048579;28;20042;-76
2022/04/03 03:03:10;;;;;;;0.30;0.30;;;;;;;-2.65;100.00;101327.25;5049497;28;20048;-79
2022/04/03 03:05:45;;;;;;;0.30;0.30;;;;;;;-2.66;100.00;101339.75;5050577;28;20743;-78
2022/04/03 03:08:13;;;;;;;0.30;0.30;;;;;;;-2.85;100.00;101316.25;5048284;28;20056;-77
2022/04/03 03:10:41;;;;;;;0.30;0.30;;;;;;;-2.81;100.00;101334.34;5050357;28;20055;-80
2022/04/03 03:13:12;;;;;;;0.40;0.40;;;;;;;-2.85;100.00;101327.72;5051117;28;20061;-79
2022/04/03 03:15:45;;;;;;;0.30;0.30;;;;;;;-2.86;100.00;101327.91;5063123;28;20045;-78
2022/04/03 03:18:14;;;;;;;0.40;0.40;;;;;;;-2.87;100.00;101337.72;5054354;28;20076;-78
2022/04/03 03:20:47;;;;;;;0.40;0.40;;;;;;;-2.94;100.00;101329.59;5049581;28;20083;-78
2022/04/03 03:23:20;;;;;;;0.40;0.40;;;;;;;-2.94;100.00;101326.09;5050831;28;20048;-78
2022/04/03 03:25:53;;;;;;;0.40;0.40;;;;;;;-2.97;100.00;101316.66;5049375;28;20064;-78
2022/04/03 03:28:28;;;;;;;0.30;0.30;;;;;;;-3.04;100.00;101331.63;5055493;28;20505;-78
2022/04/03 03:31:01;;;;;;;0.30;0.30;;;;;;;-3.01;100.00;101326.00;5054077;28;20057;-78
2022/04/03 03:33:35;;;;;;;0.40;0.40;;;;;;;-3.11;100.00;101307.56;5057577;28;20504;-80
2022/04/03 03:36:03;;;;;;;0.32;0.32;;;;;;;-3.02;100.00;101318.16;5050061;28;20061;-78
2022/04/03 03:38:31;;;;;;;0.40;0.40;;;;;;;-3.00;100.00;101316.16;5050498;28;20056;-78
2022/04/03 03:40:59;;;;;;;0.50;0.50;;;;;;;-3.03;100.00;101312.00;5050147;28;20064;-78
2022/04/03 03:43:28;;;;;;;0.30;0.30;;;;;;;-3.00;100.00;101305.50;5046982;28;20061;-78
2022/04/03 03:46:02;;;;;;;0.38;0.38;;;;;;;-2.93;100.00;101304.63;5046632;28;20049;-78
2022/04/03 03:48:36;;;;;;;0.22;0.22;;;;;;;-2.92;100.00;101305.44;5055798;28;20484;-78
2022/04/03 03:51:09;;;;;;;0.30;0.30;;;;;;;-3.04;100.00;101291.69;5054552;28;20049;-78
2022/04/03 03:53:42;;;;;;;0.32;0.32;;;;;;;-2.89;100.00;101304.28;5048280;28;20049;-78
2022/04/03 03:56:10;;;;;;;0.45;0.40;;;;;;;-2.88;100.00;101301.44;5052689;28;20059;-78
2022/04/03 03:58:45;;;;;;;0.40;0.40;;;;;;;-2.91;100.00;101299.94;5047654;28;20604;-78
2022/04/03 04:01:19;;;;;;;0.40;0.40;;;;;;;-2.86;100.00;101296.75;5051390;28;20053;-77
2022/04/03 04:03:52;;;;;;;0.30;0.30;;;;;;;-2.83;100.00;101296.41;5049646;28;20052;-78
2022/04/03 04:06:25;;;;;;;0.50;0.50;;;;;;;-2.73;100.00;101293.53;5054400;28;20057;-78
2022/04/03 04:08:58;;;;;;;0.50;0.50;;;;;;;-2.82;100.00;101299.91;5046945;28;20056;-78
2022/04/03 04:11:26;;;;;;;0.43;0.43;;;;;;;-2.79;100.00;101299.53;5048989;28;20052;-78
2022/04/03 04:13:55;;;;;;;0.40;0.40;;;;;;;-2.75;100.00;101301.69;5049507;28;20049;-79
2022/04/03 04:16:28;;;;;;;0.50;0.50;;;;;;;-2.78;100.00;101302.03;5049536;28;20053;-78
2022/04/03 04:19:02;;;;;;;0.40;0.40;;;;;;;-2.76;100.00;101296.56;5046651;28;20057;-78
2022/04/03 04:21:35;;;;;;;0.45;0.45;;;;;;;-2.65;100.00;101300.63;5050753;28;20497;-78
2022/04/03 04:24:08;;;;;;;0.50;0.50;;;;;;;-2.75;100.00;101293.72;5058886;28;20060;-78
2022/04/03 04:26:41;;;;;;;0.45;0.45;;;;;;;-2.77;100.00;101298.38;5048403;28;20040;-77
2022/04/03 04:29:16;;;;;;;0.50;0.50;;;;;;;-2.77;100.00;101294.88;5049385;28;20061;-78
2022/04/03 04:31:49;;;;;;;0.40;0.40;;;;;;;-2.80;100.00;101288.06;5048260;28;20056;-78
2022/04/03 04:34:22;;;;;;;0.40;0.40;;;;;;;-2.87;100.00;101295.13;5061916;28;20517;-79
2022/04/03 04:36:55;;;;;;;0.50;0.50;;;;;;;-2.88;100.00;101288.13;5049162;28;20053;-78
2022/04/03 04:39:28;;;;;;;0.50;0.50;;;;;;;-2.76;100.00;101294.69;5047313;28;20405;-80
2022/04/03 04:41:56;;;;;;;0.47;0.47;;;;;;;-2.77;100.00;101292.22;5043937;28;20067;-78
2022/04/03 04:44:31;;;;;;;0.55;0.55;;;;;;;-2.87;100.00;101280.94;5052302;28;20041;-77
2022/04/03 04:47:04;;;;;;;0.50;0.50;;;;;;;-2.80;100.00;101289.91;5049856;28;20049;-78
2022/04/03 04:49:38;;;;;;;0.50;0.50;;;;;;;-2.82;100.00;101290.06;5045857;28;20056;-77
2022/04/03 04:52:07;;;;;;;0.50;0.50;;;;;;;-2.81;100.00;101290.91;5047585;28;20053;-78
2022/04/03 04:54:40;;;;;;;0.60;0.60;;;;;;;-2.81;100.00;101283.75;5071301;28;20056;-77
2022/04/03 04:57:13;;;;;;;0.60;0.60;;;;;;;-2.80;100.00;101290.72;5049451;28;20056;-78
2022/04/03 04:59:47;;;;;;;0.50;0.50;;;;;;;-2.85;100.00;101271.78;5052208;28;20491;-79
2022/04/03 05:02:15;;;;;;;0.50;0.50;;;;;;;-2.74;100.00;101290.00;5058802;28;20759;-79
2022/04/03 05:04:43;;;;;;;0.60;0.60;;;;;;;-2.92;100.00;101273.50;5059508;28;20045;-78
2022/04/03 05:07:17;;;;;;;0.50;0.50;;;;;;;-2.76;100.00;101286.72;5045210;28;20056;-78
2022/04/03 05:09:51;;;;;;;0.57;0.57;;;;;;;-2.87;100.00;101275.63;5054024;28;20047;-78
2022/04/03 05:12:24;;;;;;;0.60;0.60;;;;;;;-2.83;100.00;101291.09;5080358;28;20049;-79
2022/04/03 05:14:59;;;;;;;0.63;0.63;;;;;;;-2.82;100.00;101291.91;5048607;28;20052;-77
2022/04/03 05:17:32;;;;;;;0.50;0.50;;;;;;;-2.83;100.00;101291.09;5051979;28;20064;-78
2022/04/03 05:20:05;;;;;;;0.70;0.70;;;;;;;-2.82;100.00;101291.91;5046672;28;20045;-79
2022/04/03 05:22:39;;;;;;;0.63;0.63;;;;;;;-2.72;100.00;101297.00;5042284;28;20059;-80
2022/04/03 05:25:10;;;;;;;0.70;0.70;;;;;;;-2.59;100.00;101292.75;5057839;28;20056;-79
2022/04/03 05:27:39;;;;;;;0.60;0.60;;;;;;;-2.53;100.00;101287.72;5048594;28;20049;-79
2022/04/03 05:30:14;;;;;;;0.70;0.70;;;;;;;-2.47;100.00;101290.50;5049842;28;20493;-79
2022/04/03 05:32:48;;;;;;;0.70;0.70;;;;;;;-2.42;100.00;101281.97;5039481;28;20474;-78
2022/04/03 05:35:21;;;;;;;0.80;0.80;;;;;;;-2.31;100.00;101289.53;5043591;28;20057;-79
2022/04/03 05:37:49;;;;;;;0.80;0.80;;;;;;;-2.25;100.00;101291.50;5050638;28;20056;-80
2022/04/03 05:40:22;;;;;;;0.90;0.90;;;;;;;-2.17;100.00;101289.75;5040636;28;20049;-77
2022/04/03 05:42:55;;;;;;;0.70;0.70;;;;;;;-2.10;100.00;101288.88;5048465;28;20037;-78
2022/04/03 05:45:30;;;;;;;0.80;0.80;;;;;;;-2.05;100.00;101288.31;5048933;28;20068;-79
2022/04/03 05:47:59;;;;;;;0.90;0.90;;;;;;;-1.93;100.00;101286.03;5048989;28;20049;-78
2022/04/03 05:50:32;;;;;;;0.77;0.77;;;;;;;-1.87;100.00;101285.31;5056569;28;20052;-78
2022/04/03 05:53:06;;;;;;;0.77;0.77;;;;;;;-1.78;100.00;101281.53;5043670;28;20045;-78
2022/04/03 05:55:39;;;;;;;0.90;0.90;;;;;;;-1.60;100.00;101291.00;5047412;28;20053;-78
2022/04/03 05:58:07;;;;;;;0.90;0.90;;;;;;;-1.57;100.00;101290.66;5050987;28;20071;-78
2022/04/03 06:00:36;;;;;;;1.00;1.00;;;;;;;-1.51;100.00;101291.75;5062705;28;20056;-79
2022/04/03 06:03:10;;;;;;;1.02;1.02;;;;;;;-1.46;100.00;101289.38;5045864;28;20041;-77
2022/04/03 06:05:38;;;;;;;1.05;1.05;;;;;;;-1.50;100.00;101272.88;5048854;28;20520;-78
2022/04/03 06:08:11;;;;;;;0.90;0.90;;;;;;;-1.23;100.00;101306.09;5045897;28;20048;-79
2022/04/03 06:10:44;;;;;;;0.90;0.90;;;;;;;-1.15;100.00;101286.47;5042582;28;20061;-79
2022/04/03 06:13:13;;;;;;;0.70;0.70;;;;;;;-1.08;100.00;101300.75;5049098;28;20706;-78
2022/04/03 06:15:46;;;;;;;0.82;0.82;;;;;;;-1.05;100.00;101300.38;5041006;28;20049;-78
2022/04/03 06:18:20;;;;;;;0.95;0.95;;;;;;;-0.98;100.00;101303.13;5059369;28;20049;-78
2022/04/03 06:20:48;;;;;;;0.70;0.70;;;;;;;-0.85;100.00;101299.75;5049047;28;20047;-78
2022/04/03 06:23:23;;;;;;;0.90;0.90;;;;;;;-0.80;100.00;101301.84;5050031;28;20386;-78
2022/04/03 06:25:58;;;;;;;0.90;0.90;;;;;;;-0.77;100.00;101301.50;5046586;28;20049;-78
2022/04/03 06:28:31;;;;;;;0.85;0.85;;;;;;;-0.63;100.00;101300.63;5047455;28;20045;-78
2022/04/03 06:31:00;;;;;;;1.00;1.00;;;;;;;-0.53;100.00;101289.59;5045815;28;20053;-79
2022/04/03 06:33:34;;;;;;;0.80;0.80;;;;;;;-0.33;100.00;101291.63;5051339;28;20504;-77
2022/04/03 06:36:09;;;;;;;0.70;0.70;;;;;;;-0.22;100.00;101297.28;5060136;28;20053;-78
2022/04/03 06:38:42;;;;;;;0.90;0.90;;;;;;;-0.32;100.00;101296.78;5064689;28;20053;-77
2022/04/03 06:41:17;;;;;;;0.80;0.80;;;;;;;-0.48;100.00;101286.34;5058114;28;20764;-79
2022/04/03 06:43:51;;;;;;;0.80;0.80;;;;;;;-0.54;100.00;101269.22;5046742;28;20044;-78
2022/04/03 06:46:25;;;;;;;0.90;0.90;;;;;;;-0.41;100.00;101282.72;5051652;28;20041;-78
2022/04/03 06:48:58;;;;;;;0.77;0.77;;;;;;;-0.28;100.00;101283.84;5048628;28;20065;-77
2022/04/03 06:51:31;;;;;;;0.80;0.80;;;;;;;-0.11;100.00;101285.25;5051970;28;20048;-77
2022/04/03 06:54:04;;;;;;;0.90;0.90;;;;;;;0.19;100.00;101290.38;5050937;28;20045;-78
2022/04/03 06:56:37;;;;;;;0.77;0.77;;;;;;;0.28;100.00;101293.75;5080021;28;20053;-78
2022/04/03 06:59:10;;;;;;;0.90;0.90;;;;;;;0.39;100.00;101279.81;5056465;28;20504;-79
2022/04/03 07:01:45;;;;;;;0.80;0.80;;;;;;;0.54;100.00;101285.03;5045558;28;20398;-77
2022/04/03 07:04:18;;;;;;;0.77;0.77;;;;;;;0.60;100.00;101276.19;5049677;28;20140;-77
2022/04/03 07:06:51;;;;;;;0.70;0.70;;;;;;;0.91;100.00;101280.25;5046144;28;20049;-77
2022/04/03 07:09:24;;;;;;;0.80;0.80;;;;;;;1.16;100.00;101268.97;5050578;28;20052;-77
2022/04/03 07:11:52;;;;;;;0.70;0.70;;;;;;;1.37;100.00;101273.34;5049696;28;20037;-80
2022/04/03 07:14:25;;;;;;;0.93;0.85;;;;;;;1.44;100.00;101279.56;5043335;28;20048;-79
2022/04/03 07:16:54;;;;;;;0.68;0.68;;;;;;;1.58;100.00;101272.34;5052752;28;20393;-78
2022/04/03 07:19:27;;;;;;;0.60;0.60;;;;;;;1.51;100.00;101279.56;5048894;28;20061;-78
2022/04/03 07:21:57;;;;;;;0.52;0.52;;;;;;;1.44;100.00;101273.38;5048549;28;20052;-79
2022/04/03 07:24:31;;;;;;;0.50;0.50;;;;;;;1.65;100.00;101278.53;5082797;28;20378;-79
2022/04/03 07:27:04;;;;;;;0.50;0.50;;;;;;;1.72;100.00;101272.34;5047179;28;20045;-78
2022/04/03 07:29:37;;;;;;;0.68;0.68;;;;;;;1.92;100.00;101273.19;5047505;28;20053;-79
2022/04/03 07:32:12;;;;;;;0.65;0.63;;;;;;;2.00;100.00;101269.44;5047276;28;20393;-79
2022/04/03 07:34:45;;;;;;;0.60;0.60;;;;;;;2.17;100.00;101267.16;5043151;28;20057;-79
2022/04/03 07:37:18;;;;;;;0.57;0.57;;;;;;;2.31;100.00;101273.34;5047315;28;20064;-79
2022/04/03 07:39:47;;;;;;;0.40;0.40;;;;;;;2.13;100.00;101264.06;5039104;28;20064;-78
2022/04/03 07:42:20;;;;;;;0.60;0.60;;;;;;;2.26;100.00;101270.44;5047005;28;20041;-78
2022/04/03 07:44:53;;;;;;;0.57;0.57;;;;;;;2.32;100.00;101262.38;5043056;28;20049;-78
2022/04/03 07:47:23;;;;;;;0.50;0.50;;;;;;;2.26;100.00;101273.13;5080754;28;20057;-80
2022/04/03 07:49:56;;;;;;;0.40;0.40;;;;;;;2.04;100.00;101281.41;5048055;28;20049;-78
2022/04/03 07:52:29;;;;;;;0.50;0.50;;;;;;;2.12;100.00;101280.38;5048161;28;20135;-77
2022/04/03 07:55:02;;;;;;;0.50;0.50;;;;;;;1.91;100.00;101292.19;5050360;28;20044;-79
2022/04/03 07:57:35;;;;;;;0.47;0.47;;;;;;;1.70;100.00;101297.53;5045399;28;20049;-79
2022/04/03 08:00:11;;;;;;;0.50;0.50;;;;;;;1.65;100.00;101293.81;5049844;28;20056;-79
2022/04/03 08:02:45;;;;;;;0.50;0.50;;;;;;;1.68;100.00;101299.56;5044125;28;20053;-79
2022/04/03 08:05:18;;;;;;;0.60;0.60;;;;;;;1.83;100.00;101290.53;5050038;28;20041;-78
2022/04/03 08:07:52;;;;;;;0.60;0.60;;;;;;;2.12;100.00;101291.13;5045747;28;20146;-78
2022/04/03 08:10:20;;;;;;;0.50;0.50;;;;;;;2.14;100.00;101286.34;5045787;28;20048;-79
2022/04/03 08:12:53;;;;;;;0.60;0.60;;;;;;;2.17;100.00;101267.97;5046537;28;20418;-79
2022/04/03 08:15:22;;;;;;;0.60;0.60;;;;;;;2.33;100.00;101280.13;5046806;28;20435;-78
2022/04/03 08:17:59;;;;;;;0.50;0.50;;;;;;;2.44;100.00;101275.16;5044983;28;20072;-78
2022/04/03 08:20:32;;;;;;;0.55;0.55;;;;;;;2.43;100.00;101266.28;5050391;28;20057;-78
2022/04/03 08:23:03;;;;;;;0.60;0.60;;;;;;;2.59;100.00;101277.59;5080969;28;20520;-78
2022/04/03 08:25:39;;;;;;;0.57;0.57;;;;;;;2.53;100.00;101269.34;5049192;28;20653;-78
2022/04/03 08:28:15;;;;;;;0.50;0.50;;;;;;;2.42;100.00;101266.47;5043419;28;20061;-80
2022/04/03 08:30:49;;;;;;;0.60;0.60;;;;;;;2.50;100.00;101268.91;5047975;28;20049;-78
2022/04/03 08:33:18;;;;;;;0.70;0.70;;;;;;;2.53;100.00;101273.91;5060517;28;20060;-80
2022/04/03 08:35:52;;;;;;;0.70;0.70;;;;;;;2.15;100.00;101274.59;5046030;28;20486;-77
2022/04/03 08:38:25;;;;;;;0.70;0.70;;;;;;;2.14;100.00;101281.84;5046292;28;20060;-78
2022/04/03 08:40:53;;;;;;;0.70;0.70;;;;;;;2.11;100.00;101276.84;5046059;28;20048;-79
2022/04/03 08:43:22;;;;;;;0.80;0.80;;;;;;;2.12;100.00;101273.16;5049451;28;20060;-78
2022/04/03 08:45:55;;;;;;;0.80;0.80;;;;;;;2.13;100.00;101285.53;5042825;28;20969;-79
2022/04/03 08:48:32;;;;;;;0.80;0.80;;;;;;;2.23;100.00;101285.13;5043719;28;20056;-78
2022/04/03 08:51:06;;;;;;;1.00;1.00;;;;;;;2.44;100.00;101281.34;5057516;28;20057;-81
2022/04/03 08:53:40;;;;;;;1.10;1.10;;;;;;;2.68;100.00;101281.69;5049287;28;20053;-79
2022/04/03 08:56:14;;;;;;;1.10;1.10;;;;;;;2.51;100.00;101273.25;5062010;28;20060;-79
2022/04/03 08:58:47;;;;;;;1.00;1.00;;;;;;;2.47;100.00;101274.72;5050631;28;20052;-78
2022/04/03 09:01:20;;;;;;;1.00;1.00;;;;;;;2.64;100.00;101275.09;5045243;28;20061;-78
2022/04/03 09:03:54;;;;;;;1.10;1.10;;;;;;;2.51;100.00;101274.09;5071232;28;20922;-78
2022/04/03 09:06:27;;;;;;;1.10;1.10;;;;;;;2.66;100.00;101276.50;5041686;28;20038;-79
2022/04/03 09:09:03;;;;;;;1.10;1.10;;;;;;;2.85;100.00;101279.34;5044136;28;20044;-77
2022/04/03 09:11:31;;;;;;;1.10;1.10;;;;;;;2.84;100.00;101275.00;5043661;28;20057;-77
2022/04/03 09:14:11;;;;;;;1.10;1.10;;;;;;;3.14;100.00;101277.16;5047298;28;20053;-78
2022/04/03 09:16:44;;;;;;;1.17;1.17;;;;;;;3.08;100.00;101272.63;5037024;28;20045;-79
2022/04/03 09:19:32;;;;;;;1.20;1.20;;;;;;;3.13;100.00;101273.63;5041677;28;20064;-77
2022/04/03 09:22:05;;;;;;;1.00;1.00;;;;;;;3.23;100.00;101254.31;5046981;28;20057;-77
2022/04/03 09:24:48;;;;;;;1.00;1.00;;;;;;;3.61;100.00;101248.06;5045622;28;20596;-78
2022/04/03 09:27:16;;;;;;;1.05;1.05;;;;;;;4.14;100.00;101259.41;5044890;28;20056;-77
2022/04/03 09:30:01;;;;;;;1.10;1.10;;;;;;;4.46;100.00;101254.72;5043114;28;20037;-80
2022/04/03 09:32:29;;;;;;;0.90;0.90;;;;;;;4.52;100.00;101253.81;5056390;28;20049;-78
2022/04/03 09:35:05;;;;;;;1.00;1.00;;;;;;;4.81;100.00;101254.06;5041493;28;20060;-80
2022/04/03 09:37:38;;;;;;;0.70;0.70;;;;;;;4.70;100.00;101246.75;5049840;28;20414;-79
2022/04/03 09:40:12;;;;;;;0.70;0.70;;;;;;;4.76;100.00;101245.84;5025658;28;20049;-77
2022/04/03 09:42:45;;;;;;;0.70;0.70;;;;;;;4.59;100.00;101248.34;5037748;28;20056;-78
2022/04/03 09:45:25;;;;;;;0.60;0.60;;;;;;;4.32;100.00;101242.41;5027258;28;20517;-80
2022/04/03 09:47:58;;;;;;;0.50;0.50;;;;;;;4.12;100.00;101248.84;5032795;28;20056;-79
2022/04/03 09:50:33;;;;;;;0.70;0.70;;;;;;;4.37;100.00;101246.09;5020711;28;20056;-79
2022/04/03 09:53:06;;;;;;;0.60;0.60;;;;;;;4.62;100.00;101230.88;5020027;28;20127;-80
2022/04/03 09:55:42;;;;;;;0.68;0.68;;;;;;;4.66;100.00;101240.16;5027147;28;20055;-80
2022/04/03 09:58:12;;;;;;;0.50;0.50;;;;;;;5.03;100.00;101240.91;5031244;28;20041;-79
2022/04/03 10:00:45;;;;;;;0.55;0.55;;;;;;;5.10;100.00;101230.03;5022115;28;20060;-78
2022/04/03 10:03:14;;;;;;;0.57;0.57;;;;;;;5.05;100.00;101232.59;5022778;28;20830;-80
2022/04/03 10:05:49;;;;;;;0.40;0.40;;;;;;;4.94;100.00;101224.25;5019978;28;20048;-80
2022/04/03 10:08:24;;;;;;;0.40;0.40;;;;;;;5.13;100.00;101226.88;5026043;28;20482;-79
2022/04/03 10:10:57;;;;;;;0.60;0.60;;;;;;;5.17;100.00;101219.97;5028944;28;20494;-81
2022/04/03 10:13:27;;;;;;;0.50;0.50;;;;;;;4.94;100.00;101231.50;5030909;28;20057;-81
2022/04/03 10:16:00;;;;;;;0.30;0.30;;;;;;;5.00;100.00;101227.06;5029849;28;20064;-80
2022/04/03 10:18:34;;;;;;;0.47;0.47;;;;;;;5.23;100.00;101219.06;5027146;28;20048;-82
2022/04/03 10:21:14;;;;;;;0.40;0.40;;;;;;;5.14;100.00;101222.28;5031505;28;20063;-81
2022/04/03 10:23:44;;;;;;;0.50;0.50;;;;;;;5.23;100.00;101207.41;5032959;28;20071;-79
2022/04/03 10:26:20;;;;;;;0.45;0.45;;;;;;;5.27;100.00;101198.66;5025547;28;20061;-78
2022/04/03 10:28:56;;;;;;;0.40;0.40;;;;;;;4.96;100.00;101217.78;5029098;28;20060;-80
2022/04/03 10:31:29;;;;;;;0.40;0.40;;;;;;;5.05;100.00;101217.22;5029473;28;20061;-80
2022/04/03 10:34:02;;;;;;;0.30;0.30;;;;;;;5.41;100.00;101214.63;5029791;28;20061;-79
2022/04/03 10:36:38;;;;;;;0.40;0.40;;;;;;;5.51;100.00;101206.78;5028154;28;20057;-79
2022/04/03 10:39:08;;;;;;;0.30;0.30;;;;;;;5.53;100.00;101199.25;5023250;28;20057;-79
2022/04/03 10:41:43;;;;;;;0.35;0.30;;;;;;;5.48;100.00;101193.72;5023101;28;20041;-79
2022/04/03 10:44:18;;;;;;;0.20;0.20;;;;;;;5.49;100.00;101194.56;5022124;28;20057;-81
2022/04/03 10:47:19;;;;;;;0.30;0.30;;;;;;;5.40;100.00;101202.16;5030131;28;20056;-80
2022/04/03 10:49:50;;;;;;;0.30;0.30;;;;;;;5.15;100.00;101192.41;5031148;28;20061;-79
2022/04/03 10:52:26;;;;;;;0.30;0.30;;;;;;;5.24;100.00;101187.50;5024694;28;20057;-79
2022/04/03 10:55:00;;;;;;;0.20;0.20;;;;;;;4.94;100.00;101191.03;5026599;28;20056;-78
2022/04/03 10:57:43;;;;;;;0.30;0.30;;;;;;;4.78;100.00;101200.59;5027237;28;20053;-78
2022/04/03 11:00:46;;;;;;;0.30;0.25;;;;;;;4.88;100.00;101189.28;5036738;28;20049;-78
2022/04/03 11:03:36;;;;;;;0.22;0.22;;;;;;;5.20;100.00;101195.22;5029159;28;20053;-79
2022/04/03 11:06:22;;;;;;;0.30;0.30;;;;;;;5.38;100.00;101188.91;5035207;28;20072;-79
2022/04/03 11:09:10;;;;;;;0.30;0.30;;;;;;;5.50;100.00;101182.72;5027667;28;21903;-79
2022/04/03 11:11:49;;;;;;;0.40;0.40;;;;;;;5.60;100.00;101182.97;5024224;28;20060;-79
2022/04/03 11:14:55;;;;;;;0.30;0.30;;;;;;;5.62;100.00;101175.44;5021822;28;20056;-79
2022/04/03 11:17:48;;;;;;;0.38;0.38;;;;;;;5.60;100.00;101172.16;5022123;28;20073;-79
2022/04/03 11:20:47;;;;;;;0.30;0.30;;;;;;;5.74;100.00;101161.94;5020772;28;20060;-80
2022/04/03 11:23:17;;;;;;;0.20;0.20;;;;;;;5.89;100.00;101147.97;5023202;28;20063;-81
2022/04/03 11:25:53;;;;;;;0.30;0.30;;;;;;;5.75;100.00;101161.69;5033575;28;20068;-80
2022/04/03 11:28:27;;;;;;;0.30;0.30;;;;;;;5.92;100.00;101153.72;5020330;28;20728;-79
2022/04/03 11:30:55;;;;;;;0.22;0.22;;;;;;;5.88;100.00;101149.00;5021416;28;20671;-79
2022/04/03 11:33:30;;;;;;;0.30;0.30;;;;;;;5.99;100.00;101131.97;5025660;28;20052;-81
2022/04/03 11:36:03;;;;;;;0.35;0.30;;;;;;;6.24;100.00;101137.13;5028906;28;20072;-82
2022/04/03 11:38:38;;;;;;;0.30;0.30;;;;;;;6.00;100.00;101130.94;5030215;28;20048;-80
2022/04/03 11:41:14;;;;;;;0.30;0.30;;;;;;;5.82;100.00;101125.66;5024430;28;20052;-80
2022/04/03 11:43:57;;;;;;;0.30;0.30;;;;;;;5.75;100.00;101132.00;5026058;28;20764;-79
2022/04/03 11:46:33;;;;;;;0.30;0.30;;;;;;;5.90;100.00;101122.59;5028264;28;20060;-82